createdAt,value
2023-05-20T00:00:21.912Z,98452.88
2023-05-20T00:02:54.693Z,98456.84
2023-05-20T00:05:27.001Z,98454.19
2023-05-20T00:08:00.956Z,98450.22
2023-05-20T00:10:32.914Z,98454.19
2023-05-20T00:13:05.683Z,98448.28
2023-05-20T00:15:37.871Z,98453.56
2023-05-20T00:18:11.065Z,98451.59
2023-05-20T00:20:43.601Z,98448.28
2023-05-20T00:23:15.772Z,98450.25
2023-05-20T00:25:48.537Z,98446.94
2023-05-20T00:28:21.555Z,98441.00
2023-05-20T00:30:55.401Z,98445.66
2023-05-20T00:33:27.386Z,98441.69
2023-05-20T00:36:00.208Z,98436.41
2023-05-20T00:38:32.701Z,98436.41
2023-05-20T00:41:04.762Z,98440.34
2023-05-20T00:43:37.721Z,98430.41
2023-05-20T00:46:13.161Z,98431.13
2023-05-20T00:48:45.724Z,98432.41
2023-05-20T00:51:20.962Z,98423.88
2023-05-20T00:53:53.633Z,98421.84
2023-05-20T00:56:26.584Z,98425.81
2023-05-20T00:58:59.788Z,98418.53
2023-05-20T01:01:32.920Z,98414.53
2023-05-20T01:04:05.989Z,98419.81
2023-05-20T01:06:38.790Z,98407.88
2023-05-20T01:09:11.192Z,98411.78
2023-05-20T01:11:52.901Z,98409.78
2023-05-20T01:14:31.149Z,98417.69
2023-05-20T01:17:10.047Z,98407.22
2023-05-20T01:19:44.130Z,98415.16
2023-05-20T01:22:17.422Z,98413.88
2023-05-20T01:24:49.423Z,98417.88
2023-05-20T01:27:23.482Z,98411.91
2023-05-20T01:29:55.413Z,98413.91
2023-05-20T01:32:53.407Z,98407.97
2023-05-20T01:35:25.898Z,98410.63
2023-05-20T01:37:59.503Z,98402.34
2023-05-20T01:40:32.983Z,98389.19
2023-05-20T01:43:27.930Z,98389.47
2023-05-20T01:46:03.244Z,98390.75
2023-05-20T01:48:36.612Z,98391.72
2023-05-20T01:51:08.911Z,98385.56
2023-05-20T01:53:42.894Z,98389.88
2023-05-20T01:56:15.275Z,98384.38
2023-05-20T01:58:48.106Z,98383.59
2023-05-20T02:01:20.529Z,98372.91
2023-05-20T02:03:53.845Z,98382.97
2023-05-20T02:06:26.226Z,98373.31
2023-05-20T02:09:01.039Z,98374.19
2023-05-20T02:11:32.964Z,98372.13
2023-05-20T02:14:05.955Z,98372.97
2023-05-20T02:16:38.078Z,98369.78
2023-05-20T02:19:13.267Z,98365.09
2023-05-20T02:21:47.378Z,98369.81
2023-05-20T02:24:21.576Z,98372.28
2023-05-20T02:26:54.819Z,98374.94
2023-05-20T02:29:27.760Z,98371.41
2023-05-20T02:31:59.834Z,98375.09
2023-05-20T02:34:34.375Z,98372.47
2023-05-20T02:37:06.298Z,98377.25
2023-05-20T02:39:39.077Z,98372.63
2023-05-20T02:42:12.251Z,98371.38
2023-05-20T02:44:44.840Z,98376.72
2023-05-20T02:47:17.431Z,98373.44
2023-05-20T02:49:50.769Z,98370.19
2023-05-20T02:52:23.143Z,98374.19
2023-05-20T02:54:56.856Z,98365.63
2023-05-20T02:57:29.253Z,98368.94
2023-05-20T03:00:03.186Z,98366.34
2023-05-20T03:02:57.666Z,98361.06
2023-05-20T03:05:30.053Z,98353.81
2023-05-20T03:08:02.666Z,98357.78
2023-05-20T03:10:35.547Z,98358.44
2023-05-20T03:13:09.962Z,98360.47
2023-05-20T03:15:47.779Z,98355.19
2023-05-20T03:18:20.452Z,98350.53
2023-05-20T03:20:56.599Z,98345.94
2023-05-20T03:23:29.204Z,98342.63
2023-05-20T03:26:02.210Z,98337.38
2023-05-20T03:28:34.225Z,98333.44
2023-05-20T03:31:07.125Z,98332.78
2023-05-20T03:33:40.570Z,98337.41
2023-05-20T03:36:13.275Z,98341.38
2023-05-20T03:38:45.848Z,98332.16
2023-05-20T03:41:17.834Z,98330.84
2023-05-20T03:43:51.467Z,98337.44
2023-05-20T03:46:23.918Z,98338.81
2023-05-20T03:48:56.299Z,98342.75
2023-05-20T03:51:29.660Z,98344.06
2023-05-20T03:54:09.108Z,98343.41
2023-05-20T03:56:41.502Z,98350.69
2023-05-20T03:59:13.482Z,98349.38
2023-05-20T04:01:46.692Z,98343.44
2023-05-20T04:04:19.182Z,98340.56
2023-05-20T04:06:52.503Z,98338.03
2023-05-20T04:09:25.585Z,98334.06
2023-05-20T04:12:01.015Z,98331.44
2023-05-20T04:14:36.982Z,98336.09
2023-05-20T04:17:09.596Z,98333.47
2023-05-20T04:19:43.086Z,98336.78
2023-05-20T04:22:17.594Z,98340.38
2023-05-20T04:24:50.458Z,98335.31
2023-05-20T04:27:23.710Z,98335.22
2023-05-20T04:29:59.149Z,98338.72
2023-05-20T04:32:31.854Z,98345.38
2023-05-20T04:35:09.426Z,98336.75
2023-05-20T04:37:42.377Z,98338.78
2023-05-20T04:40:20.006Z,98342.09
2023-05-20T04:42:52.144Z,98349.38
2023-05-20T04:45:26.989Z,98345.41
2023-05-20T04:47:59.693Z,98340.78
2023-05-20T04:50:32.587Z,98344.72
2023-05-20T04:53:04.545Z,98339.44
2023-05-20T04:55:37.826Z,98340.69
2023-05-20T04:58:15.233Z,98347.34
2023-05-20T05:00:48.028Z,98347.34
2023-05-20T05:03:20.632Z,98348.00
2023-05-20T05:05:58.781Z,98342.06
2023-05-20T05:08:31.891Z,98339.41
2023-05-20T05:11:07.318Z,98339.34
2023-05-20T05:13:39.401Z,98337.97
2023-05-20T05:16:12.232Z,98341.84
2023-05-20T05:18:44.361Z,98337.13
2023-05-20T05:21:17.248Z,98330.41
2023-05-20T05:23:52.597Z,98325.47
2023-05-20T05:26:25.541Z,98311.53
2023-05-20T05:28:57.974Z,98310.19
2023-05-20T05:31:30.018Z,98317.75
2023-05-20T05:34:02.947Z,98311.47
2023-05-20T05:36:35.015Z,98311.34
2023-05-20T05:39:08.525Z,98313.28
2023-05-20T05:41:42.105Z,98312.75
2023-05-20T05:44:15.763Z,98315.34
2023-05-20T05:46:48.353Z,98311.31
2023-05-20T05:49:21.239Z,98306.31
2023-05-20T05:51:54.373Z,98303.81
2023-05-20T05:54:27.217Z,98304.34
2023-05-20T05:57:03.219Z,98305.34
2023-05-20T05:59:37.678Z,98304.13
2023-05-20T06:02:11.279Z,98290.25
2023-05-20T06:04:43.718Z,98287.19
2023-05-20T06:07:17.139Z,98293.53
2023-05-20T06:09:49.537Z,98299.50
2023-05-20T06:12:22.571Z,98293.47
2023-05-20T06:14:54.539Z,98291.56
2023-05-20T06:17:27.532Z,98288.16
2023-05-20T06:20:00.121Z,98290.16
2023-05-20T06:22:36.292Z,98296.69
2023-05-20T06:25:10.036Z,98294.41
2023-05-20T06:27:42.527Z,98287.41
2023-05-20T06:30:18.198Z,98286.66
2023-05-20T06:32:50.578Z,98288.22
2023-05-20T06:40:05.932Z,98273.63
2023-05-20T06:42:41.883Z,98271.56
2023-05-20T06:45:14.793Z,98272.25
2023-05-20T06:51:13.396Z,98259.91
2023-05-20T06:53:45.729Z,98260.19
2023-05-20T06:56:20.267Z,98259.03
2023-05-20T06:58:52.443Z,98262.00
2023-05-20T07:01:25.282Z,98254.81
2023-05-20T07:03:57.472Z,98254.97
2023-05-20T07:06:31.911Z,98258.34
2023-05-20T07:09:05.393Z,98262.44
2023-05-20T07:11:38.763Z,98262.09
2023-05-20T07:14:11.904Z,98254.66
2023-05-20T07:16:43.880Z,98251.69
2023-05-20T07:19:16.726Z,98249.19
2023-05-20T07:21:50.408Z,98254.47
2023-05-20T07:24:40.605Z,98248.16
2023-05-20T07:27:14.140Z,98237.13
2023-05-20T07:29:46.253Z,98239.91
2023-05-20T07:32:19.518Z,98241.88
2023-05-20T07:34:52.046Z,98230.16
2023-05-20T07:37:24.977Z,98232.41
2023-05-20T07:39:58.552Z,98232.16
2023-05-20T07:42:31.047Z,98231.56
2023-05-20T07:45:07.209Z,98223.75
2023-05-20T07:47:40.175Z,98221.09
2023-05-20T07:50:13.153Z,98219.97
2023-05-20T07:52:55.865Z,98223.56
2023-05-20T07:55:37.243Z,98222.25
2023-05-20T07:58:10.629Z,98220.84
2023-05-20T08:00:44.381Z,98229.00
2023-05-20T08:03:17.818Z,98231.34
2023-05-20T08:06:13.154Z,98220.47
2023-05-20T08:08:46.249Z,98219.19
2023-05-20T08:11:25.097Z,98212.59
2023-05-20T08:13:57.666Z,98217.00
2023-05-20T08:16:32.720Z,98217.72
2023-05-20T08:19:05.014Z,98208.72
2023-05-20T08:21:37.965Z,98205.09
2023-05-20T08:24:09.934Z,98201.00
2023-05-20T08:26:42.751Z,98203.22
2023-05-20T08:29:14.732Z,98201.78
2023-05-20T08:31:47.558Z,98206.84
2023-05-20T08:34:21.005Z,98205.22
2023-05-20T08:36:53.885Z,98203.72
2023-05-20T08:39:27.218Z,98211.50
2023-05-20T08:42:03.851Z,98210.31
2023-05-20T08:44:36.281Z,98224.00
2023-05-20T08:47:10.833Z,98214.44
2023-05-20T08:49:42.870Z,98219.69
2023-05-20T08:52:19.366Z,98219.38
2023-05-20T08:54:52.532Z,98213.78
2023-05-20T08:57:25.310Z,98220.88
2023-05-20T08:59:57.614Z,98225.16
2023-05-20T09:02:30.048Z,98220.34
2023-05-20T09:05:02.447Z,98222.59
2023-05-20T09:07:35.352Z,98223.22
2023-05-20T09:10:09.034Z,98224.59
2023-05-20T09:12:41.045Z,98221.91
2023-05-20T09:15:14.263Z,98213.13
2023-05-20T09:17:49.672Z,98215.63
2023-05-20T09:20:23.789Z,98211.94
2023-05-20T09:23:03.475Z,98209.38
2023-05-20T09:25:37.698Z,98215.38
2023-05-20T09:28:12.259Z,98217.03
2023-05-20T09:30:45.887Z,98218.63
2023-05-20T09:33:18.985Z,98217.09
2023-05-20T09:35:51.220Z,98209.47
2023-05-20T09:38:23.652Z,98217.34
2023-05-20T09:40:56.228Z,98215.53
2023-05-20T09:43:29.196Z,98209.13
2023-05-20T09:46:02.722Z,98204.50
2023-05-20T09:48:39.797Z,98202.91
2023-05-20T09:51:14.336Z,98195.59
2023-05-20T09:53:46.812Z,98196.53
2023-05-20T09:56:22.510Z,98196.09
2023-05-20T09:58:58.766Z,98190.44
2023-05-20T10:01:30.803Z,98190.03
2023-05-20T10:04:07.290Z,98194.47
2023-05-20T10:07:44.573Z,98194.84
2023-05-20T10:10:53.872Z,98182.31
2023-05-20T10:13:49.861Z,98191.22
2023-05-20T10:16:48.873Z,98187.97
2023-05-20T10:19:34.018Z,98177.13
2023-05-20T10:22:12.363Z,98177.59
2023-05-20T10:24:44.822Z,98181.75
2023-05-20T10:27:18.875Z,98187.19
2023-05-20T10:29:58.383Z,98176.41
2023-05-20T10:32:32.492Z,98178.38
2023-05-20T10:35:10.061Z,98164.19
2023-05-20T10:37:45.731Z,98180.66
2023-05-20T10:40:20.997Z,98185.22
2023-05-20T10:42:53.430Z,98170.31
2023-05-20T10:45:27.714Z,98177.53
2023-05-20T10:48:00.848Z,98172.06
2023-05-20T10:50:41.541Z,98165.75
2023-05-20T10:53:25.674Z,98155.47
2023-05-20T10:56:07.272Z,98155.31
2023-05-20T10:58:39.691Z,98150.38
2023-05-20T11:01:14.531Z,98162.34
2023-05-20T11:03:49.844Z,98157.16
2023-05-20T11:06:32.042Z,98159.63
2023-05-20T11:09:06.727Z,98158.34
2023-05-20T11:11:39.086Z,98157.19
2023-05-20T11:14:15.207Z,98155.09
2023-05-20T11:16:53.678Z,98164.31
2023-05-20T11:19:27.113Z,98163.28
2023-05-20T11:22:00.055Z,98159.41
2023-05-20T11:24:33.608Z,98148.31
2023-05-20T11:27:07.364Z,98143.56
2023-05-20T11:29:40.673Z,98130.63
2023-05-20T11:32:13.324Z,98128.06
2023-05-20T11:34:45.967Z,98122.06
2023-05-20T11:37:20.096Z,98120.44
2023-05-20T11:40:08.887Z,98119.03
2023-05-20T11:42:45.690Z,98113.31
2023-05-20T11:45:18.543Z,98100.50
2023-05-20T11:48:02.443Z,98107.94
2023-05-20T11:50:41.210Z,98099.25
2023-05-20T11:53:23.277Z,98102.13
2023-05-20T11:56:00.810Z,98102.41
2023-05-20T11:58:33.926Z,98089.81
2023-05-20T12:01:20.928Z,98088.25
2023-05-20T12:03:55.282Z,98094.81
2023-05-20T12:06:28.192Z,98092.78
2023-05-20T12:09:07.385Z,98096.19
2023-05-20T12:11:41.571Z,98106.59
2023-05-20T12:14:15.882Z,98101.09
2023-05-20T12:16:48.200Z,98087.59
2023-05-20T12:19:21.671Z,98088.94
2023-05-20T12:21:54.131Z,98090.38
2023-05-20T12:24:27.090Z,98079.53
2023-05-20T12:26:59.436Z,98082.75
2023-05-20T12:29:31.880Z,98087.38
2023-05-20T12:32:05.335Z,98079.19
2023-05-20T12:34:39.107Z,98079.59
2023-05-20T12:37:11.064Z,98068.03
2023-05-20T12:39:44.865Z,98071.28
2023-05-20T12:42:17.218Z,98064.56
2023-05-20T12:44:49.700Z,98050.25
2023-05-20T12:47:22.724Z,98046.28
2023-05-20T12:49:55.088Z,98037.78
2023-05-20T12:52:28.163Z,98033.91
2023-05-20T12:55:00.684Z,98047.47
2023-05-20T12:57:33.048Z,98035.31
2023-05-20T13:00:06.461Z,98046.75
2023-05-20T13:02:42.284Z,98048.06
2023-05-20T13:05:15.078Z,98038.28
2023-05-20T13:07:47.887Z,98047.81
2023-05-20T13:10:20.083Z,98045.00
2023-05-20T13:12:53.742Z,98047.69
2023-05-20T13:15:26.782Z,98040.53
2023-05-20T13:18:01.836Z,98034.53
2023-05-20T13:20:34.150Z,98033.47
2023-05-20T13:23:08.128Z,98040.44
2023-05-20T13:25:40.128Z,98036.59
2023-05-20T13:28:16.971Z,98032.88
2023-05-20T13:30:49.397Z,98016.59
2023-05-20T13:33:25.393Z,98024.91
2023-05-20T13:35:57.735Z,98027.44
2023-05-20T13:38:30.909Z,98027.75
2023-05-20T13:41:03.735Z,98009.41
2023-05-20T13:43:36.195Z,98012.22
2023-05-20T13:46:08.397Z,98015.09
2023-05-20T13:48:41.246Z,98012.22
2023-05-20T13:51:13.203Z,98012.50
2023-05-20T13:53:46.431Z,98019.88
2023-05-20T13:56:18.717Z,98001.69
2023-05-20T13:58:51.556Z,98004.09
2023-05-20T14:01:24.070Z,98005.69
2023-05-20T14:03:57.013Z,98003.22
2023-05-20T14:06:31.891Z,98000.94
2023-05-20T14:09:05.015Z,97990.47
2023-05-20T14:11:37.873Z,98000.25
2023-05-20T14:14:10.775Z,97999.13
2023-05-20T14:16:42.849Z,97982.25
2023-05-20T14:19:16.032Z,97980.75
2023-05-20T14:21:48.001Z,97992.06
2023-05-20T14:24:22.931Z,97990.03
2023-05-20T14:26:56.179Z,97990.41
2023-05-20T14:29:29.575Z,97994.66
2023-05-20T14:32:04.072Z,97999.91
2023-05-20T14:34:37.903Z,98000.69
2023-05-20T14:37:11.854Z,97991.22
2023-05-20T14:39:44.212Z,97999.03
2023-05-20T14:42:16.760Z,97995.56
2023-05-20T14:44:49.804Z,98004.91
2023-05-20T14:47:22.870Z,98013.03
2023-05-20T14:49:54.988Z,98006.31
2023-05-20T14:52:27.762Z,98014.41
2023-05-20T14:54:59.824Z,98010.03
2023-05-20T14:57:34.465Z,98017.94
2023-05-20T15:00:09.163Z,98020.38
2023-05-20T15:02:41.506Z,98019.28
2023-05-20T15:05:15.234Z,98027.72
2023-05-20T15:07:47.573Z,98028.72
2023-05-20T15:10:20.427Z,98032.88
2023-05-20T15:12:53.445Z,98028.00
2023-05-20T15:15:26.319Z,98032.19
2023-05-20T15:17:58.287Z,98033.88
2023-05-20T15:20:31.362Z,98027.44
2023-05-20T15:23:04.181Z,98029.19
2023-05-20T15:25:37.200Z,98018.22
2023-05-20T15:28:10.548Z,98019.91
2023-05-20T15:30:43.701Z,98017.94
2023-05-20T15:33:15.669Z,98018.59
2023-05-20T15:35:49.004Z,98023.66
2023-05-20T15:38:21.301Z,98022.78
2023-05-20T15:40:53.857Z,98020.84
2023-05-20T15:43:26.131Z,98021.28
2023-05-20T15:45:59.317Z,98029.41
2023-05-20T15:48:34.704Z,98021.72
2023-05-20T15:51:07.410Z,98023.25
2023-05-20T15:53:40.857Z,98028.19
2023-05-20T15:56:13.772Z,98021.34
2023-05-20T15:58:46.134Z,98030.66
2023-05-20T16:01:18.534Z,98023.97
2023-05-20T16:03:51.374Z,98016.78
2023-05-20T16:06:24.590Z,98021.56
2023-05-20T16:08:56.908Z,98013.72
2023-05-20T16:11:32.425Z,98010.72
2023-05-20T16:14:04.802Z,98011.25
2023-05-20T16:16:37.060Z,98013.72
2023-05-20T16:19:09.868Z,98015.97
2023-05-20T16:21:42.313Z,98020.69
2023-05-20T16:24:15.334Z,98027.13
2023-05-20T16:26:48.195Z,98017.78
2023-05-20T16:29:20.133Z,98023.03
2023-05-20T16:31:53.196Z,98023.47
2023-05-20T16:34:25.868Z,98009.59
2023-05-20T16:37:20.953Z,98019.34
2023-05-20T16:39:52.901Z,98017.75
2023-05-20T16:42:26.463Z,98023.00
2023-05-20T16:44:58.439Z,98014.88
2023-05-20T16:47:33.264Z,98016.13
2023-05-20T16:50:05.925Z,98017.25
2023-05-20T16:52:38.793Z,98020.03
2023-05-20T16:55:11.425Z,98017.78
2023-05-20T16:57:44.262Z,98019.84
2023-05-20T17:00:16.515Z,98017.88
2023-05-20T17:02:49.281Z,98020.69
2023-05-20T17:05:21.813Z,98012.72
2023-05-20T17:07:59.285Z,98024.97
2023-05-20T17:10:31.800Z,98029.19
2023-05-20T17:13:04.403Z,98029.94
2023-05-20T17:15:37.325Z,98039.47
2023-05-20T17:18:09.798Z,98036.38
2023-05-20T17:20:41.819Z,98032.69
2023-05-20T17:23:15.268Z,98024.94
2023-05-20T17:25:47.299Z,98031.34
2023-05-20T17:28:22.828Z,98028.16
2023-05-20T17:30:55.155Z,98034.22
2023-05-20T17:33:27.600Z,98042.47
2023-05-20T17:35:59.768Z,98040.19
2023-05-20T17:38:32.548Z,98044.69
2023-05-20T17:41:04.741Z,98038.69
2023-05-20T17:43:38.132Z,98049.91
2023-05-20T17:46:10.959Z,98042.91
2023-05-20T17:48:45.247Z,98042.81
2023-05-20T17:51:17.243Z,98056.72
2023-05-20T17:53:50.030Z,98058.88
2023-05-20T17:56:25.395Z,98055.47
2023-05-20T17:58:57.362Z,98054.00
2023-05-20T18:01:30.534Z,98056.25
2023-05-20T18:04:05.743Z,98058.50
2023-05-20T18:06:38.894Z,98058.19
2023-05-20T18:09:11.693Z,98065.78
2023-05-20T18:11:44.041Z,98056.19
2023-05-20T18:14:19.050Z,98063.78
2023-05-20T18:16:51.416Z,98056.28
2023-05-20T18:19:27.015Z,98062.28
2023-05-20T18:21:59.723Z,98055.25
2023-05-20T18:24:32.635Z,98055.16
2023-05-20T18:27:04.879Z,98056.38
2023-05-20T18:29:37.595Z,98055.06
2023-05-20T18:32:09.835Z,98054.19
2023-05-20T18:34:42.641Z,98061.84
2023-05-20T18:37:15.379Z,98059.09
2023-05-20T18:39:48.222Z,98060.03
2023-05-20T18:42:20.952Z,98067.16
2023-05-20T18:44:53.953Z,98063.28
2023-05-20T18:47:26.791Z,98065.34
2023-05-20T18:49:59.561Z,98068.69
2023-05-20T18:52:32.195Z,98060.50
2023-05-20T18:55:05.138Z,98064.00
2023-05-20T18:57:38.065Z,98065.69
2023-05-20T19:00:13.110Z,98068.78
2023-05-20T19:02:45.665Z,98058.59
2023-05-20T19:05:18.369Z,98059.94
2023-05-20T19:07:50.773Z,98060.09
2023-05-20T19:10:23.679Z,98063.31
2023-05-20T19:12:56.130Z,98055.66
2023-05-20T19:15:30.594Z,98065.13
2023-05-20T19:18:03.510Z,98062.94
2023-05-20T19:20:35.686Z,98057.56
2023-05-20T19:23:08.836Z,98056.75
2023-05-20T19:25:40.748Z,98053.44
2023-05-20T19:28:14.000Z,98054.19
2023-05-20T19:30:46.541Z,98066.25
2023-05-20T19:33:18.548Z,98065.88
2023-05-20T19:35:51.715Z,98067.97
2023-05-20T19:38:24.470Z,98061.22
2023-05-20T19:40:56.913Z,98064.53
2023-05-20T19:43:30.972Z,98059.63
2023-05-20T19:46:03.041Z,98059.19
2023-05-20T19:48:36.469Z,98065.56
2023-05-20T19:51:10.418Z,98063.84
2023-05-20T19:53:43.202Z,98060.03
2023-05-20T19:56:19.362Z,98069.78
2023-05-20T19:58:52.385Z,98065.16
2023-05-20T20:01:24.884Z,98066.31
2023-05-20T20:03:58.064Z,98067.50
2023-05-20T20:06:29.977Z,98059.59
2023-05-20T20:09:06.370Z,98069.31
2023-05-20T20:11:38.323Z,98066.47
2023-05-20T20:14:10.773Z,98067.84
2023-05-20T20:16:48.686Z,98062.88
2023-05-20T20:19:23.242Z,98063.28
2023-05-20T20:21:58.773Z,98058.63
2023-05-20T20:24:31.534Z,98062.03
2023-05-20T20:27:06.204Z,98059.00
2023-05-20T20:29:38.579Z,98059.91
2023-05-20T20:32:10.946Z,98055.03
2023-05-20T20:34:43.814Z,98059.38
2023-05-20T20:37:15.830Z,98062.03
2023-05-20T20:39:50.401Z,98057.94
2023-05-20T20:42:24.655Z,98056.84
2023-05-20T20:44:56.993Z,98061.59
2023-05-20T20:47:30.375Z,98061.28
2023-05-20T20:50:03.737Z,98058.78
2023-05-20T20:52:39.079Z,98056.38
2023-05-20T20:55:11.870Z,98049.19
2023-05-20T20:57:45.257Z,98054.84
2023-05-20T21:00:21.250Z,98051.47
2023-05-20T21:02:53.684Z,98049.03
2023-05-20T21:05:26.542Z,98042.28
2023-05-20T21:07:59.928Z,98041.13
2023-05-20T21:10:33.539Z,98045.31
2023-05-20T21:13:05.965Z,98037.97
2023-05-20T21:15:38.026Z,98030.13
2023-05-20T21:18:11.809Z,98042.88
2023-05-20T21:20:43.716Z,98029.72
2023-05-20T21:23:16.533Z,98035.31
2023-05-20T21:26:08.182Z,98035.91
2023-05-20T21:28:40.117Z,98034.25
2023-05-20T21:31:14.221Z,98028.88
2023-05-20T21:33:46.172Z,98023.72
2023-05-20T21:36:18.990Z,98027.56
2023-05-20T21:38:50.953Z,98016.13
2023-05-20T21:41:27.259Z,98017.22
2023-05-20T21:44:00.371Z,98024.47
2023-05-20T21:46:34.049Z,98017.75
2023-05-20T21:49:06.458Z,98017.34
2023-05-20T21:51:39.279Z,98019.59
2023-05-20T21:54:11.686Z,98018.47
2023-05-20T21:56:44.116Z,98013.09
2023-05-20T21:59:16.527Z,98009.25
2023-05-20T22:01:51.647Z,98007.34
2023-05-20T22:04:25.201Z,98003.94
2023-05-20T22:06:57.635Z,97991.56
2023-05-20T22:09:30.057Z,98000.50
2023-05-20T22:12:02.210Z,98005.69
2023-05-20T22:14:35.191Z,97998.88
2023-05-20T22:17:07.108Z,98004.06
2023-05-20T22:19:40.571Z,98000.72
2023-05-20T22:22:13.749Z,97988.94
2023-05-20T22:24:46.247Z,97989.59
2023-05-20T22:27:18.146Z,97987.38
2023-05-20T22:29:50.950Z,97991.63
2023-05-20T22:32:23.390Z,97989.63
2023-05-20T22:34:58.878Z,97991.28
2023-05-20T22:37:31.577Z,97990.09
2023-05-20T22:40:04.182Z,97985.56
2023-05-20T22:42:36.503Z,97990.16
2023-05-20T22:45:09.994Z,97987.44
2023-05-20T22:47:42.427Z,97992.06
2023-05-20T22:50:14.483Z,97992.63
2023-05-20T22:52:47.244Z,97992.69
2023-05-20T22:55:20.013Z,97988.75
2023-05-20T23:00:45.778Z,97986.06
2023-05-20T23:03:18.634Z,97986.03
2023-05-20T23:05:51.122Z,97993.47
2023-05-20T23:08:23.893Z,97985.41
2023-05-20T23:10:56.453Z,97992.00
2023-05-20T23:13:28.820Z,97986.13
2023-05-20T23:16:02.088Z,97984.47
2023-05-20T23:18:36.002Z,97981.00
2023-05-20T23:21:08.236Z,97983.31
2023-05-20T23:23:41.049Z,97982.25
2023-05-20T23:26:12.987Z,97977.94
2023-05-20T23:28:46.155Z,97972.31
2023-05-20T23:31:19.068Z,97966.34
2023-05-20T23:33:51.630Z,97973.66
2023-05-20T23:36:25.709Z,97972.47
2023-05-20T23:38:58.869Z,97972.59
2023-05-20T23:41:31.004Z,97964.94
2023-05-20T23:44:04.337Z,97960.50
2023-05-20T23:46:38.053Z,97970.09
2023-05-20T23:49:10.637Z,97963.53
2023-05-20T23:51:42.974Z,97959.75
2023-05-20T23:54:16.695Z,97964.28
2023-05-20T23:56:49.378Z,97956.44
2023-05-20T23:59:21.796Z,97952.78
